createdAt,value
2019-02-06T00:03:24.078Z,0.60
2019-02-06T00:08:30.661Z,0.70
2019-02-06T00:13:37.447Z,0.70
2019-02-06T00:18:43.650Z,0.60
2019-02-06T00:24:11.458Z,0.60
2019-02-06T00:29:18.121Z,0.60
2019-02-06T00:34:25.267Z,0.60
2019-02-06T00:39:33.177Z,0.50
2019-02-06T00:44:39.426Z,0.60
2019-02-06T00:49:45.682Z,0.50
2019-02-06T00:54:53.620Z,0.60
2019-02-06T01:00:00.086Z,0.70
2019-02-06T01:05:11.265Z,0.60
2019-02-06T01:10:22.673Z,0.70
2019-02-06T01:15:28.120Z,0.70
2019-02-06T01:20:35.167Z,0.60
2019-02-06T01:25:42.561Z,0.60
2019-02-06T01:30:54.784Z,0.50
2019-02-06T01:36:00.939Z,0.60
2019-02-06T01:41:07.273Z,0.60
2019-02-06T01:46:14.133Z,0.60
2019-02-06T01:51:20.412Z,0.60
2019-02-06T01:56:25.970Z,0.70
2019-02-06T02:01:32.577Z,0.60
2019-02-06T02:06:40.428Z,0.60
2019-02-06T02:11:46.798Z,0.60
2019-02-06T02:16:53.656Z,0.50
2019-02-06T02:22:00.280Z,0.40
2019-02-06T02:27:06.737Z,0.30
2019-02-06T02:32:13.420Z,0.20
2019-02-06T02:37:41.552Z,0.00
2019-02-06T02:42:48.388Z,-0.20
2019-02-06T02:47:54.945Z,-0.40
2019-02-06T02:53:01.442Z,-0.40
2019-02-06T02:58:09.614Z,-0.40
2019-02-06T03:03:17.647Z,-0.50
2019-02-06T03:08:23.301Z,-0.80
2019-02-06T03:13:28.893Z,-0.90
2019-02-06T03:18:36.729Z,-0.90
2019-02-06T03:23:43.701Z,-0.90
2019-02-06T03:28:50.258Z,-1.30
2019-02-06T03:33:56.873Z,-1.20
2019-02-06T03:39:04.893Z,-1.30
2019-02-06T03:44:11.154Z,-1.40
2019-02-06T03:49:17.437Z,-1.30
2019-02-06T03:54:23.070Z,-1.50
2019-02-06T03:59:30.520Z,-1.50
2019-02-06T04:04:38.574Z,-1.70
2019-02-06T04:09:45.527Z,-1.60
2019-02-06T04:14:52.215Z,-1.60
2019-02-06T04:19:58.765Z,-1.90
2019-02-06T04:25:25.984Z,-1.80
2019-02-06T04:30:31.807Z,-1.90
2019-02-06T04:35:38.180Z,-2.00
2019-02-06T04:40:44.406Z,-2.00
2019-02-06T04:45:51.893Z,-2.20
2019-02-06T04:50:59.534Z,-2.30
2019-02-06T04:56:07.137Z,-2.30
2019-02-06T05:01:13.707Z,-2.40
2019-02-06T05:06:20.371Z,-2.40
2019-02-06T05:11:25.982Z,-2.50
2019-02-06T05:16:33.103Z,-2.60
2019-02-06T05:21:39.825Z,-2.60
2019-02-06T05:26:46.472Z,-2.80
2019-02-06T05:31:52.940Z,-2.80
2019-02-06T05:36:59.394Z,-2.80
2019-02-06T05:42:06.200Z,-2.90
2019-02-06T05:47:14.386Z,-2.90
2019-02-06T05:52:20.782Z,-2.90
2019-02-06T05:57:26.426Z,-2.90
2019-02-06T06:02:32.927Z,-2.90
2019-02-06T06:07:45.176Z,-2.90
2019-02-06T06:12:48.391Z,-2.90
2019-02-06T06:17:55.742Z,-2.80
2019-02-06T06:23:02.464Z,-2.90
2019-02-06T06:28:10.855Z,-2.90
2019-02-06T06:33:17.483Z,-2.90
2019-02-06T06:38:23.115Z,-3.00
2019-02-06T06:43:30.369Z,-3.10
2019-02-06T06:48:38.428Z,-3.20
2019-02-06T06:53:44.765Z,-3.30
2019-02-06T06:58:51.024Z,-3.40
2019-02-06T07:03:57.623Z,-3.40
2019-02-06T07:09:24.390Z,-3.40
2019-02-06T07:14:31.683Z,-3.40
2019-02-06T07:19:59.922Z,-3.30
2019-02-06T07:25:08.551Z,-3.20
2019-02-06T07:30:25.310Z,-3.20
2019-02-06T07:35:31.826Z,-3.10
2019-02-06T07:40:38.242Z,-3.00
2019-02-06T07:45:44.229Z,-2.90
2019-02-06T07:50:50.390Z,-2.90
2019-02-06T07:55:57.097Z,-2.60
2019-02-06T08:01:05.636Z,-2.20
2019-02-06T08:06:12.165Z,-2.00
2019-02-06T08:11:18.710Z,-1.50
2019-02-06T08:16:24.380Z,-1.20
2019-02-06T08:21:31.048Z,-0.90
2019-02-06T08:26:37.761Z,-0.70
2019-02-06T08:31:44.311Z,-0.70
2019-02-06T08:37:02.688Z,-0.30
2019-02-06T08:42:09.300Z,-0.30
2019-02-06T08:47:17.090Z,-0.30
2019-02-06T08:52:22.709Z,0.10
2019-02-06T08:57:29.408Z,0.40
2019-02-06T09:02:36.068Z,0.60
2019-02-06T09:07:43.698Z,0.80
2019-02-06T09:12:50.299Z,1.10
2019-02-06T09:17:57.937Z,1.40
2019-02-06T09:23:04.617Z,1.70
2019-02-06T09:28:11.216Z,1.80
2019-02-06T09:33:17.990Z,2.10
2019-02-06T09:38:23.629Z,2.30
2019-02-06T09:43:31.177Z,2.60
2019-02-06T09:48:37.358Z,2.80
2019-02-06T09:53:43.683Z,3.20
2019-02-06T09:58:50.320Z,3.40
2019-02-06T10:03:56.506Z,3.90
2019-02-06T10:09:02.666Z,3.70
2019-02-06T10:14:13.268Z,3.90
2019-02-06T10:19:19.818Z,4.30
2019-02-06T10:24:25.537Z,4.30
2019-02-06T10:29:32.095Z,4.70
2019-02-06T10:34:41.078Z,4.60
2019-02-06T10:39:48.428Z,4.50
2019-02-06T10:44:55.312Z,4.70
2019-02-06T10:50:02.173Z,4.80
2019-02-06T10:55:09.655Z,5.00
2019-02-06T11:00:29.987Z,5.20
2019-02-06T11:05:38.155Z,5.70
2019-02-06T11:10:44.877Z,5.60
2019-02-06T11:15:51.984Z,5.60
2019-02-06T11:21:00.001Z,5.40
2019-02-06T11:26:06.528Z,5.80
2019-02-06T11:31:13.420Z,6.10
2019-02-06T11:36:24.269Z,6.40
2019-02-06T11:41:27.429Z,6.50
2019-02-06T11:46:34.593Z,6.20
2019-02-06T11:51:41.095Z,6.30
2019-02-06T11:56:47.806Z,5.90
2019-02-06T12:01:54.472Z,6.80
2019-02-06T12:07:01.298Z,6.50
2019-02-06T12:12:07.470Z,6.20
2019-02-06T12:17:14.118Z,6.80
2019-02-06T12:22:21.709Z,7.10
2019-02-06T12:27:27.357Z,7.10
2019-02-06T12:32:33.592Z,7.00
2019-02-06T12:37:40.301Z,7.00
2019-02-06T12:42:46.394Z,7.00
2019-02-06T12:47:52.823Z,7.60
2019-02-06T12:52:59.514Z,8.10
2019-02-06T12:58:07.311Z,8.20
2019-02-06T13:03:14.086Z,8.20
2019-02-06T13:08:20.637Z,8.00
2019-02-06T13:13:26.290Z,7.90
2019-02-06T13:18:32.019Z,8.00
2019-02-06T13:23:38.117Z,8.10
2019-02-06T13:28:44.301Z,8.40
2019-02-06T13:33:50.376Z,8.00
2019-02-06T13:38:57.682Z,8.00
2019-02-06T13:44:07.420Z,7.50
2019-02-06T13:49:14.255Z,7.70
2019-02-06T13:54:20.863Z,7.70
2019-02-06T13:59:28.062Z,7.60
2019-02-06T14:04:34.723Z,7.40
2019-02-06T14:09:42.260Z,7.40
2019-02-06T14:14:48.711Z,7.30
2019-02-06T14:19:57.025Z,7.70
2019-02-06T14:25:03.504Z,7.90
2019-02-06T14:30:47.118Z,8.00
2019-02-06T14:36:21.849Z,7.80
2019-02-06T14:41:41.078Z,7.80
2019-02-06T14:47:09.713Z,7.70
2019-02-06T14:52:51.312Z,7.30
2019-02-06T14:58:35.157Z,7.10
2019-02-06T15:04:03.255Z,6.90
2019-02-06T15:09:22.106Z,6.50
2019-02-06T15:15:11.960Z,6.10
2019-02-06T15:20:56.670Z,5.70
2019-02-06T15:26:13.133Z,5.20
2019-02-06T15:31:45.141Z,4.80
2019-02-06T15:37:31.670Z,4.50
2019-02-06T15:42:57.913Z,4.30
2019-02-06T15:48:16.876Z,3.90
2019-02-06T15:53:35.930Z,3.60
2019-02-06T15:59:10.220Z,3.20
2019-02-06T16:04:43.846Z,2.90
2019-02-06T16:10:26.464Z,2.50
2019-02-06T16:15:49.258Z,2.20
2019-02-06T16:21:20.689Z,2.00
2019-02-06T16:27:09.267Z,1.70
2019-02-06T16:32:26.082Z,1.50
2019-02-06T16:38:05.485Z,1.20
2019-02-06T16:43:31.136Z,1.00
2019-02-06T16:48:51.158Z,0.80
2019-02-06T16:54:24.550Z,0.70
2019-02-06T17:00:03.960Z,0.50
2019-02-06T17:05:30.742Z,0.40
2019-02-06T17:10:59.163Z,0.20
2019-02-06T17:16:19.202Z,0.10
2019-02-06T17:21:45.393Z,0.00
2019-02-06T17:27:35.959Z,-0.20
2019-02-06T17:32:58.259Z,-0.40
2019-02-06T17:38:38.507Z,-0.40
2019-02-06T17:44:07.866Z,-0.50
2019-02-06T17:49:43.555Z,-0.60
2019-02-06T17:55:15.772Z,-0.80
2019-02-06T18:00:47.847Z,-0.90
2019-02-06T18:05:54.549Z,-1.10
2019-02-06T18:11:01.485Z,-1.20
2019-02-06T18:16:08.220Z,-1.20
2019-02-06T18:21:14.887Z,-1.40
2019-02-06T18:26:21.774Z,-1.50
2019-02-06T18:31:28.866Z,-1.60
2019-02-06T18:36:35.763Z,-1.60
2019-02-06T18:41:42.384Z,-1.80
2019-02-06T18:46:49.482Z,-1.90
2019-02-06T18:51:56.314Z,-1.90
2019-02-06T18:57:03.281Z,-2.00
2019-02-06T19:02:10.337Z,-2.10
2019-02-06T19:07:16.922Z,-1.90
2019-02-06T19:12:22.734Z,-2.00
2019-02-06T19:17:28.439Z,-2.00
2019-02-06T19:22:35.248Z,-2.00
2019-02-06T19:27:43.597Z,-1.90
2019-02-06T19:32:51.952Z,-1.90
2019-02-06T19:37:58.653Z,-2.00
2019-02-06T19:43:05.406Z,-2.00
2019-02-06T19:48:16.232Z,-2.20
2019-02-06T19:53:20.735Z,-2.20
2019-02-06T19:58:26.593Z,-2.40
2019-02-06T20:03:33.315Z,-2.40
2019-02-06T20:08:39.890Z,-2.50
2019-02-06T20:13:46.565Z,-2.60
2019-02-06T20:18:53.376Z,-2.60
2019-02-06T20:23:59.835Z,-2.70
2019-02-06T20:29:06.200Z,-2.80
2019-02-06T20:34:13.626Z,-2.90
2019-02-06T20:39:19.928Z,-3.00
2019-02-06T20:44:25.682Z,-3.10
2019-02-06T20:49:33.991Z,-3.20
2019-02-06T20:54:40.699Z,-3.30
2019-02-06T20:59:49.029Z,-3.40
2019-02-06T21:04:55.974Z,-3.40
2019-02-06T21:10:02.888Z,-3.50
2019-02-06T21:15:32.944Z,-3.60
2019-02-06T21:20:41.169Z,-3.70
2019-02-06T21:25:47.751Z,-3.80
2019-02-06T21:30:54.804Z,-3.90
2019-02-06T21:36:01.528Z,-4.00
2019-02-06T21:41:08.162Z,-3.90
2019-02-06T21:46:14.795Z,-3.90
2019-02-06T21:51:21.464Z,-3.90
2019-02-06T21:56:27.172Z,-3.90
2019-02-06T22:01:33.589Z,-4.00
2019-02-06T22:06:39.991Z,-4.00
2019-02-06T22:11:46.379Z,-4.00
2019-02-06T22:16:52.781Z,-4.00
2019-02-06T22:21:59.835Z,-4.10
2019-02-06T22:27:06.595Z,-4.20
2019-02-06T22:32:13.500Z,-4.20
2019-02-06T22:37:20.393Z,-4.30
2019-02-06T22:42:26.134Z,-4.40
2019-02-06T22:47:32.801Z,-4.40
2019-02-06T22:52:39.514Z,-4.60
2019-02-06T22:57:46.058Z,-4.60
2019-02-06T23:03:04.873Z,-4.70
2019-02-06T23:08:11.571Z,-4.80
2019-02-06T23:13:17.726Z,-4.90
2019-02-06T23:18:23.494Z,-5.00
2019-02-06T23:23:30.746Z,-5.10
2019-02-06T23:28:36.927Z,-5.10
2019-02-06T23:33:43.383Z,-5.10
2019-02-06T23:38:50.171Z,-5.20
2019-02-06T23:43:56.774Z,-5.20
2019-02-06T23:49:03.552Z,-5.40
2019-02-06T23:54:10.150Z,-5.40
2019-02-06T23:59:17.551Z,-5.50
